Time;durP1;ratioP1;P1;durP2;ratioP2;P2;SDS_P1;SDS_P2;PMS_P1;PMS_P2;Temp;Humidity;BMP_temperature;BMP_pressure;BME280_temperature;BME280_humidity;BME280_pressure;Samples;Min_cycle;Max_cycle;Signal;HPM_P1;HPM_P2
2021/08/14 00:00:39;;;;;;;12.88;7.97;;;;;;;;;;5042975;28;20507;-75
2021/08/14 00:03:24;;;;;;;12.00;8.10;;;;;;;;;;5040942;28;20063;-75
2021/08/14 00:06:09;;;;;;;14.27;7.22;;;;;;;;;;5038748;28;20688;-74
2021/08/14 00:08:53;;;;;;;12.45;7.45;;;;;;;;;;5041070;28;20040;-74
2021/08/14 00:11:38;;;;;;;11.05;7.43;;;;;;;;;;5024875;28;20457;-75
2021/08/14 00:14:23;;;;;;;10.98;7.10;;;;;;;;;;5058658;28;20815;-74
2021/08/14 00:17:07;;;;;;;11.15;7.28;;;;;;;;;;5037647;28;20668;-75
2021/08/14 00:19:52;;;;;;;9.70;6.57;;;;;;;;;;5042083;28;20044;-75
2021/08/14 00:22:37;;;;;;;11.85;6.47;;;;;;;;;;5039487;28;20139;-74
2021/08/14 00:25:21;;;;;;;9.55;6.95;;;;;;;;;;5026904;28;20122;-74
2021/08/14 00:28:06;;;;;;;9.25;5.97;;;;;;;;;;5039947;28;20079;-74
2021/08/14 00:30:50;;;;;;;11.88;6.47;;;;;;;;;;5056239;28;20090;-74
2021/08/14 00:33:35;;;;;;;9.77;6.70;;;;;;;;;;5053622;28;20186;-74
2021/08/14 00:36:19;;;;;;;11.18;6.70;;;;;;;;;;5046235;28;20044;-74
2021/08/14 00:39:05;;;;;;;10.27;5.82;;;;;;;;;;5030592;28;20468;-73
2021/08/14 00:41:51;;;;;;;8.90;5.32;;;;;;;;;;5018496;28;20036;-74
2021/08/14 00:44:35;;;;;;;12.23;5.93;;;;;;;;;;5048270;28;20043;-74
2021/08/14 00:47:24;;;;;;;10.10;5.50;;;;;;;;;;5044758;28;20166;-74
2021/08/14 00:50:12;;;;;;;11.80;6.10;;;;;;;;;;5048295;28;20082;-74
2021/08/14 00:52:57;;;;;;;10.77;5.57;;;;;;;;;;5042777;28;20051;-74
2021/08/14 00:55:42;;;;;;;9.20;6.00;;;;;;;;;;5031465;28;20066;-74
2021/08/14 00:58:27;;;;;;;9.55;5.25;;;;;;;;;;5035056;28;20085;-74
2021/08/14 01:01:11;;;;;;;8.15;4.97;;;;;;;;;;5043724;28;20044;-74
2021/08/14 01:03:56;;;;;;;11.00;6.00;;;;;;;;;;5047152;28;20043;-74
2021/08/14 01:06:40;;;;;;;8.15;5.00;;;;;;;;;;5046300;28;20124;-73
2021/08/14 01:09:28;;;;;;;9.00;5.00;;;;;;;;;;5043013;28;20145;-74
2021/08/14 01:12:14;;;;;;;8.05;4.85;;;;;;;;;;5050368;28;20036;-74
2021/08/14 01:14:58;;;;;;;8.60;5.00;;;;;;;;;;5044748;28;20111;-74
2021/08/14 01:17:43;;;;;;;6.97;4.72;;;;;;;;;;5036232;28;20031;-74
2021/08/14 01:20:28;;;;;;;8.10;4.53;;;;;;;;;;5052475;28;20562;-74
2021/08/14 01:23:13;;;;;;;8.18;4.40;;;;;;;;;;5055285;28;20409;-74
2021/08/14 01:26:01;;;;;;;9.02;4.72;;;;;;;;;;5018842;28;20098;-74
2021/08/14 01:28:46;;;;;;;9.57;4.63;;;;;;;;;;5042599;28;20052;-75
2021/08/14 01:31:30;;;;;;;7.10;4.38;;;;;;;;;;5043610;28;20154;-74
2021/08/14 01:34:17;;;;;;;10.45;4.68;;;;;;;;;;5041831;28;20043;-74
2021/08/14 01:37:02;;;;;;;9.73;4.85;;;;;;;;;;5025196;28;20038;-74
2021/08/14 01:39:46;;;;;;;6.68;4.07;;;;;;;;;;5053316;28;20500;-74
2021/08/14 01:42:31;;;;;;;9.65;4.70;;;;;;;;;;5042500;28;20044;-74
2021/08/14 01:45:15;;;;;;;8.68;4.40;;;;;;;;;;5045790;28;20067;-74
2021/08/14 01:48:00;;;;;;;9.05;4.68;;;;;;;;;;5045430;28;20071;-74
2021/08/14 01:50:44;;;;;;;9.95;4.80;;;;;;;;;;5050310;28;20417;-74
2021/08/14 01:53:29;;;;;;;5.97;4.03;;;;;;;;;;5014264;28;20142;-74
2021/08/14 01:56:13;;;;;;;8.02;4.40;;;;;;;;;;5047937;28;20043;-75
2021/08/14 01:58:59;;;;;;;8.05;3.80;;;;;;;;;;5028161;28;20036;-74
2021/08/14 02:01:44;;;;;;;6.82;3.80;;;;;;;;;;5043539;28;20099;-74
2021/08/14 02:04:29;;;;;;;9.75;4.38;;;;;;;;;;5054859;28;20048;-75
2021/08/14 02:07:14;;;;;;;10.20;4.45;;;;;;;;;;5044073;28;20072;-74
2021/08/14 02:09:58;;;;;;;6.57;4.00;;;;;;;;;;5043981;28;20041;-74
2021/08/14 02:12:43;;;;;;;8.30;3.88;;;;;;;;;;5042475;28;20044;-74
2021/08/14 02:15:27;;;;;;;8.30;4.40;;;;;;;;;;5040767;28;20055;-74
2021/08/14 02:18:12;;;;;;;6.72;3.80;;;;;;;;;;5032465;28;20036;-75
2021/08/14 02:20:56;;;;;;;8.77;4.10;;;;;;;;;;5033405;28;20110;-74
2021/08/14 02:23:42;;;;;;;8.20;3.60;;;;;;;;;;5044569;28;20567;-74
2021/08/14 02:26:26;;;;;;;5.88;3.25;;;;;;;;;;5061609;28;20048;-74
2021/08/14 02:29:11;;;;;;;10.52;3.90;;;;;;;;;;5053431;28;20087;-75
2021/08/14 02:31:56;;;;;;;6.93;3.35;;;;;;;;;;5049257;28;20047;-75
2021/08/14 02:34:41;;;;;;;9.02;4.20;;;;;;;;;;5047963;28;20456;-75
2021/08/14 02:37:26;;;;;;;7.07;3.63;;;;;;;;;;5028130;28;20613;-74
2021/08/14 02:40:11;;;;;;;9.05;3.80;;;;;;;;;;5045330;28;20055;-74
2021/08/14 02:42:55;;;;;;;5.95;3.22;;;;;;;;;;5066115;28;20125;-74
2021/08/14 02:45:40;;;;;;;7.38;3.45;;;;;;;;;;5056474;28;20048;-74
2021/08/14 02:48:25;;;;;;;9.32;3.55;;;;;;;;;;5042829;28;20494;-74
2021/08/14 02:51:09;;;;;;;7.45;3.47;;;;;;;;;;5036143;28;20099;-74
2021/08/14 02:53:54;;;;;;;9.48;3.72;;;;;;;;;;5043443;28;20036;-74
2021/08/14 02:56:38;;;;;;;6.32;3.13;;;;;;;;;;5033484;28;20041;-75
2021/08/14 02:59:23;;;;;;;5.85;3.08;;;;;;;;;;5065628;28;20118;-74
2021/08/14 03:02:07;;;;;;;6.82;3.38;;;;;;;;;;5049473;28;20094;-75
2021/08/14 03:04:52;;;;;;;7.95;3.45;;;;;;;;;;5055653;28;20570;-75
2021/08/14 03:07:36;;;;;;;6.60;3.08;;;;;;;;;;5046474;28;20496;-74
2021/08/14 03:10:20;;;;;;;5.72;3.03;;;;;;;;;;5057196;28;20405;-75
2021/08/14 03:13:05;;;;;;;8.73;3.50;;;;;;;;;;5048661;28;20460;-74
2021/08/14 03:15:50;;;;;;;7.38;3.30;;;;;;;;;;5047685;28;20425;-75
2021/08/14 03:18:35;;;;;;;5.85;3.50;;;;;;;;;;5067940;28;20214;-74
2021/08/14 03:21:19;;;;;;;12.52;3.83;;;;;;;;;;5050541;28;20044;-74
2021/08/14 03:24:04;;;;;;;6.28;3.10;;;;;;;;;;5048451;28;20040;-75
2021/08/14 03:26:49;;;;;;;5.30;2.88;;;;;;;;;;5047895;28;20071;-74
2021/08/14 03:29:34;;;;;;;5.38;3.08;;;;;;;;;;5066077;28;20090;-75
2021/08/14 03:32:18;;;;;;;8.13;3.60;;;;;;;;;;5033405;28;20052;-74
2021/08/14 03:35:03;;;;;;;5.43;3.38;;;;;;;;;;5035017;28;20053;-74
2021/08/14 03:37:47;;;;;;;6.57;3.10;;;;;;;;;;5058666;28;20082;-74
2021/08/14 03:40:32;;;;;;;8.70;3.40;;;;;;;;;;5054751;28;20039;-75
2021/08/14 03:43:19;;;;;;;6.63;3.30;;;;;;;;;;5051954;28;20027;-75
2021/08/14 03:46:04;;;;;;;7.35;3.10;;;;;;;;;;5061634;28;20054;-74
2021/08/14 03:48:48;;;;;;;5.55;3.15;;;;;;;;;;5057111;28;20044;-74
2021/08/14 03:51:33;;;;;;;5.57;3.00;;;;;;;;;;5049243;28;20042;-75
2021/08/14 03:54:17;;;;;;;5.00;3.00;;;;;;;;;;5052501;28;20103;-74
2021/08/14 03:57:02;;;;;;;7.13;2.92;;;;;;;;;;5052154;28;20195;-75
2021/08/14 03:59:47;;;;;;;6.45;3.15;;;;;;;;;;5051537;28;20067;-75
2021/08/14 04:02:31;;;;;;;7.88;3.03;;;;;;;;;;5067004;28;20039;-75
2021/08/14 04:05:16;;;;;;;5.80;2.88;;;;;;;;;;5026685;28;20056;-75
2021/08/14 04:08:00;;;;;;;5.68;3.20;;;;;;;;;;5043623;28;20060;-74
2021/08/14 04:10:45;;;;;;;7.90;3.40;;;;;;;;;;5058779;28;20051;-74
2021/08/14 04:13:29;;;;;;;9.52;3.60;;;;;;;;;;5047066;28;20466;-74
2021/08/14 04:16:14;;;;;;;7.85;3.17;;;;;;;;;;5042284;28;20048;-75
2021/08/14 04:18:58;;;;;;;6.43;3.03;;;;;;;;;;5060454;28;20504;-74
2021/08/14 04:21:44;;;;;;;5.40;3.03;;;;;;;;;;5055874;28;20040;-75
2021/08/14 04:24:29;;;;;;;6.75;3.10;;;;;;;;;;5052298;28;20052;-75
2021/08/14 04:27:14;;;;;;;6.50;3.22;;;;;;;;;;5064316;28;20097;-75
2021/08/14 04:30:01;;;;;;;4.82;3.17;;;;;;;;;;5050057;28;20060;-75
2021/08/14 04:32:46;;;;;;;6.35;3.00;;;;;;;;;;5033437;28;20103;-74
2021/08/14 04:35:31;;;;;;;5.90;2.85;;;;;;;;;;5066594;28;20055;-75
2021/08/14 04:38:15;;;;;;;7.10;2.88;;;;;;;;;;5049716;28;20091;-74
2021/08/14 04:41:00;;;;;;;8.05;2.95;;;;;;;;;;5058473;28;20468;-74
2021/08/14 04:43:45;;;;;;;5.72;2.80;;;;;;;;;;5046389;28;20039;-75
2021/08/14 04:46:29;;;;;;;8.23;2.90;;;;;;;;;;5032315;28;20675;-75
2021/08/14 04:49:14;;;;;;;5.90;2.67;;;;;;;;;;5030027;28;20032;-74
2021/08/14 04:51:58;;;;;;;6.13;3.05;;;;;;;;;;5044484;28;20048;-74
2021/08/14 04:54:43;;;;;;;6.15;3.17;;;;;;;;;;5047783;28;20075;-74
2021/08/14 04:57:27;;;;;;;6.45;2.97;;;;;;;;;;5027296;28;20753;-74
2021/08/14 05:00:12;;;;;;;6.47;3.00;;;;;;;;;;5042250;28;20072;-74
2021/08/14 05:02:57;;;;;;;5.68;2.90;;;;;;;;;;5041112;28;20039;-74
2021/08/14 05:05:42;;;;;;;5.82;2.95;;;;;;;;;;5041659;28;20090;-74
2021/08/14 05:08:27;;;;;;;4.97;3.00;;;;;;;;;;5043248;28;20094;-74
2021/08/14 05:11:13;;;;;;;7.13;2.85;;;;;;;;;;5049905;28;20047;-74
2021/08/14 05:13:57;;;;;;;6.28;2.92;;;;;;;;;;5042105;28;20597;-74
2021/08/14 05:16:42;;;;;;;5.97;2.85;;;;;;;;;;5045716;28;20043;-74
2021/08/14 05:19:26;;;;;;;6.68;2.95;;;;;;;;;;5062133;28;20035;-74
2021/08/14 05:22:11;;;;;;;5.50;2.65;;;;;;;;;;5045416;28;20091;-74
2021/08/14 05:24:55;;;;;;;6.07;2.78;;;;;;;;;;5050299;28;20528;-74
2021/08/14 05:27:40;;;;;;;5.22;2.83;;;;;;;;;;5043465;28;20803;-74
2021/08/14 05:30:24;;;;;;;4.55;2.80;;;;;;;;;;5044034;28;20039;-74
2021/08/14 05:33:09;;;;;;;6.18;2.80;;;;;;;;;;5020753;28;20051;-74
2021/08/14 05:35:53;;;;;;;4.47;2.40;;;;;;;;;;5042523;28;20055;-74
2021/08/14 05:38:38;;;;;;;7.78;3.20;;;;;;;;;;5042969;28;20512;-74
2021/08/14 05:41:22;;;;;;;4.95;2.80;;;;;;;;;;5042750;28;20036;-74
2021/08/14 05:44:07;;;;;;;6.47;2.85;;;;;;;;;;5043451;28;20050;-74
2021/08/14 05:46:51;;;;;;;6.55;2.97;;;;;;;;;;5043634;28;20059;-74
2021/08/14 05:49:36;;;;;;;8.20;3.88;;;;;;;;;;5054287;28;20047;-74
2021/08/14 05:52:21;;;;;;;7.07;2.90;;;;;;;;;;5047226;28;20116;-74
2021/08/14 05:55:06;;;;;;;10.35;3.20;;;;;;;;;;5046924;28;20059;-74
2021/08/14 05:57:53;;;;;;;7.85;3.17;;;;;;;;;;5018847;28;20043;-74
2021/08/14 06:00:38;;;;;;;8.43;2.95;;;;;;;;;;5028646;28;20060;-74
2021/08/14 06:03:22;;;;;;;5.55;2.92;;;;;;;;;;5049939;28;20108;-74
2021/08/14 06:06:09;;;;;;;7.40;3.05;;;;;;;;;;5055792;28;20408;-73
2021/08/14 06:08:54;;;;;;;9.10;3.15;;;;;;;;;;5045419;28;20094;-73
2021/08/14 06:11:39;;;;;;;4.57;2.60;;;;;;;;;;5046349;28;20102;-74
2021/08/14 06:14:23;;;;;;;5.30;2.75;;;;;;;;;;5048586;28;20090;-74
2021/08/14 06:17:08;;;;;;;6.80;2.88;;;;;;;;;;5038578;28;20606;-74
2021/08/14 06:19:53;;;;;;;4.90;2.78;;;;;;;;;;5047913;28;20076;-74
2021/08/14 06:22:37;;;;;;;4.95;2.90;;;;;;;;;;5046041;28;20043;-74
2021/08/14 06:25:23;;;;;;;5.93;2.67;;;;;;;;;;5032075;28;20120;-74
2021/08/14 06:28:08;;;;;;;6.68;3.40;;;;;;;;;;5047141;28;20048;-74
2021/08/14 06:30:52;;;;;;;7.78;2.80;;;;;;;;;;5034977;28;20098;-74
2021/08/14 06:33:37;;;;;;;6.07;2.90;;;;;;;;;;5050137;28;20813;-74
2021/08/14 06:36:21;;;;;;;4.80;2.60;;;;;;;;;;5046110;28;20071;-74
2021/08/14 06:39:06;;;;;;;6.93;2.85;;;;;;;;;;5043112;28;20087;-74
2021/08/14 06:41:50;;;;;;;5.40;2.85;;;;;;;;;;5049906;28;20111;-74
2021/08/14 06:44:37;;;;;;;5.88;3.00;;;;;;;;;;5050532;28;20079;-74
2021/08/14 06:47:21;;;;;;;7.05;3.00;;;;;;;;;;5062293;28;20040;-74
2021/08/14 06:50:06;;;;;;;5.93;2.97;;;;;;;;;;5042869;28;20111;-74
2021/08/14 06:52:51;;;;;;;6.00;3.50;;;;;;;;;;5047998;28;20040;-74
2021/08/14 06:55:36;;;;;;;5.55;3.10;;;;;;;;;;5044559;28;20857;-74
2021/08/14 06:58:20;;;;;;;5.45;2.80;;;;;;;;;;5043469;28;20039;-74
2021/08/14 07:01:05;;;;;;;4.90;2.70;;;;;;;;;;5051283;28;20047;-75
2021/08/14 07:03:49;;;;;;;5.10;3.03;;;;;;;;;;5045792;28;20044;-74
2021/08/14 07:06:33;;;;;;;7.55;2.80;;;;;;;;;;5035749;28;20044;-73
2021/08/14 07:09:18;;;;;;;5.70;2.95;;;;;;;;;;5039478;28;20031;-74
2021/08/14 07:12:02;;;;;;;8.10;3.08;;;;;;;;;;5054034;28;20055;-75
2021/08/14 07:14:47;;;;;;;6.75;3.10;;;;;;;;;;5046758;28;20047;-74
2021/08/14 07:17:32;;;;;;;6.93;2.90;;;;;;;;;;5030386;28;20031;-74
2021/08/14 07:20:17;;;;;;;5.65;2.78;;;;;;;;;;5030042;28;20059;-74
2021/08/14 07:23:01;;;;;;;6.63;2.92;;;;;;;;;;5044395;28;20039;-74
2021/08/14 07:25:45;;;;;;;6.28;3.00;;;;;;;;;;5040073;28;20146;-74
2021/08/14 07:28:30;;;;;;;5.57;2.70;;;;;;;;;;5042708;28;20054;-74
2021/08/14 07:31:14;;;;;;;9.52;2.90;;;;;;;;;;5040305;28;20798;-74
2021/08/14 07:33:59;;;;;;;5.05;2.45;;;;;;;;;;5042341;28;20448;-74
2021/08/14 07:36:43;;;;;;;6.35;2.60;;;;;;;;;;5043569;28;20048;-74
2021/08/14 07:39:28;;;;;;;4.60;2.90;;;;;;;;;;5041475;28;20480;-75
2021/08/14 07:42:12;;;;;;;6.32;3.10;;;;;;;;;;5038602;28;20117;-74
2021/08/14 07:44:57;;;;;;;6.75;2.80;;;;;;;;;;5042543;28;20556;-74
2021/08/14 07:47:42;;;;;;;4.25;2.78;;;;;;;;;;5042870;28;20044;-74
2021/08/14 07:50:27;;;;;;;7.55;3.08;;;;;;;;;;5043749;28;20093;-75
2021/08/14 07:53:12;;;;;;;5.35;2.90;;;;;;;;;;5044187;28;20840;-74
2021/08/14 07:55:57;;;;;;;4.40;2.63;;;;;;;;;;5042891;28;20052;-75
2021/08/14 07:58:41;;;;;;;7.25;2.78;;;;;;;;;;5039683;28;20126;-75
2021/08/14 08:01:26;;;;;;;5.80;2.75;;;;;;;;;;5040929;28;20163;-74
2021/08/14 08:04:10;;;;;;;6.82;3.17;;;;;;;;;;5042536;28;20458;-74
2021/08/14 08:06:55;;;;;;;6.95;2.95;;;;;;;;;;5042422;28;20036;-75
2021/08/14 08:09:39;;;;;;;7.90;3.67;;;;;;;;;;5028506;28;20512;-75
2021/08/14 08:12:24;;;;;;;5.38;3.00;;;;;;;;;;5042496;28;20516;-75
2021/08/14 08:15:09;;;;;;;5.97;3.10;;;;;;;;;;5039877;28;20055;-75
2021/08/14 08:17:54;;;;;;;4.70;2.97;;;;;;;;;;5038693;28;20036;-75
2021/08/14 08:20:38;;;;;;;6.53;2.78;;;;;;;;;;5026274;28;20157;-75
2021/08/14 08:23:23;;;;;;;6.80;2.63;;;;;;;;;;5043673;28;20039;-75
2021/08/14 08:26:07;;;;;;;6.82;2.60;;;;;;;;;;5025261;28;20091;-75
2021/08/14 08:28:52;;;;;;;6.22;3.22;;;;;;;;;;5036193;28;20059;-75
2021/08/14 08:31:36;;;;;;;4.97;2.90;;;;;;;;;;5039323;28;20103;-75
2021/08/14 08:34:24;;;;;;;4.65;2.60;;;;;;;;;;5028392;28;20114;-75
2021/08/14 08:37:08;;;;;;;5.03;2.67;;;;;;;;;;5028402;28;20062;-75
2021/08/14 08:39:53;;;;;;;4.88;2.83;;;;;;;;;;5042759;28;20581;-75
2021/08/14 08:42:38;;;;;;;7.00;3.15;;;;;;;;;;5043897;28;20684;-75
2021/08/14 08:45:22;;;;;;;4.70;2.63;;;;;;;;;;5029558;28;20044;-75
2021/08/14 08:48:07;;;;;;;6.90;3.05;;;;;;;;;;5039537;28;20086;-75
2021/08/14 08:50:54;;;;;;;6.25;2.70;;;;;;;;;;5043242;28;20135;-75
2021/08/14 08:53:39;;;;;;;4.93;2.95;;;;;;;;;;5028125;28;20413;-75
2021/08/14 08:56:24;;;;;;;6.45;2.63;;;;;;;;;;5037991;28;20052;-76
2021/08/14 08:59:17;;;;;;;5.13;2.85;;;;;;;;;;5041966;28;20040;-75
2021/08/14 09:02:01;;;;;;;5.88;2.78;;;;;;;;;;5042679;28;20046;-76
2021/08/14 09:04:46;;;;;;;6.53;3.00;;;;;;;;;;5038452;28;20087;-76
2021/08/14 09:07:31;;;;;;;6.90;2.90;;;;;;;;;;5038567;28;20063;-75
2021/08/14 09:10:16;;;;;;;8.82;3.75;;;;;;;;;;5026143;28;20048;-75
2021/08/14 09:13:09;;;;;;;6.20;3.15;;;;;;;;;;5038105;28;20060;-76
2021/08/14 09:15:53;;;;;;;;;;;;;;;;;;5044314;28;20043;-75
2021/08/14 09:18:38;;;;;;;7.43;3.00;;;;;;;;;;5042073;28;20276;-75
2021/08/14 09:21:33;;;;;;;6.78;3.13;;;;;;;;;;5039017;28;20099;-78
2021/08/14 09:24:47;;;;;;;7.95;3.15;;;;;;;;;;5041070;28;20858;-74
2021/08/14 09:27:32;;;;;;;8.57;3.30;;;;;;;;;;5033560;28;20435;-75
2021/08/14 09:30:16;;;;;;;9.75;2.80;;;;;;;;;;5041276;28;20094;-74
2021/08/14 09:33:07;;;;;;;9.38;3.38;;;;;;;;;;5041222;28;20115;-75
2021/08/14 09:35:59;;;;;;;7.90;3.00;;;;;;;;;;5041358;28;20063;-75
2021/08/14 09:38:47;;;;;;;9.63;3.30;;;;;;;;;;5038675;28;20564;-75
2021/08/14 09:41:32;;;;;;;7.15;2.95;;;;;;;;;;5041235;28;20071;-75
2021/08/14 09:44:16;;;;;;;6.25;3.08;;;;;;;;;;5038031;28;20039;-75
2021/08/14 09:47:01;;;;;;;7.57;3.40;;;;;;;;;;5040743;28;20079;-74
2021/08/14 09:49:49;;;;;;;6.30;3.05;;;;;;;;;;5041363;28;20067;-75
2021/08/14 09:52:34;;;;;;;5.18;2.72;;;;;;;;;;5041414;28;20105;-74
2021/08/14 09:55:23;;;;;;;6.25;3.15;;;;;;;;;;5040226;28;20075;-74
2021/08/14 09:58:12;;;;;;;5.05;2.75;;;;;;;;;;5041395;28;20453;-74
2021/08/14 10:00:57;;;;;;;7.70;2.83;;;;;;;;;;5041050;28;20125;-74
2021/08/14 10:03:42;;;;;;;7.63;3.15;;;;;;;;;;5041024;28;20187;-74
2021/08/14 10:06:27;;;;;;;9.05;3.15;;;;;;;;;;5028949;28;20116;-74
2021/08/14 10:09:12;;;;;;;7.20;2.90;;;;;;;;;;5028943;28;20044;-74
2021/08/14 10:11:56;;;;;;;7.30;3.10;;;;;;;;;;5024751;28;20127;-74
2021/08/14 10:14:41;;;;;;;7.35;3.13;;;;;;;;;;5043223;28;20052;-75
2021/08/14 10:17:26;;;;;;;5.88;2.85;;;;;;;;;;5044363;28;20059;-75
2021/08/14 10:20:10;;;;;;;7.55;3.13;;;;;;;;;;5046086;28;20043;-72
2021/08/14 10:23:05;;;;;;;6.78;3.03;;;;;;;;;;5038150;28;20750;-73
2021/08/14 10:26:00;;;;;;;7.75;3.55;;;;;;;;;;5027898;28;20094;-73
2021/08/14 10:28:52;;;;;;;7.60;3.25;;;;;;;;;;5052855;28;20118;-73
2021/08/14 10:31:36;;;;;;;6.97;3.13;;;;;;;;;;5048643;28;20505;-73
2021/08/14 10:34:21;;;;;;;5.20;2.80;;;;;;;;;;5059729;28;20129;-73
2021/08/14 10:37:41;;;;;;;5.90;2.80;;;;;;;;;;5044752;28;20052;-73
2021/08/14 10:40:30;;;;;;;6.75;3.65;;;;;;;;;;4993348;28;20037;-74
2021/08/14 10:43:15;;;;;;;6.55;3.00;;;;;;;;;;5040118;28;20882;-76
2021/08/14 10:46:00;;;;;;;7.32;3.20;;;;;;;;;;5041474;28;20127;-74
2021/08/14 10:48:54;;;;;;;6.82;3.20;;;;;;;;;;5028522;28;20110;-75
2021/08/14 10:51:51;;;;;;;5.70;2.92;;;;;;;;;;5040849;28;20040;-75
2021/08/14 10:54:35;;;;;;;10.48;3.30;;;;;;;;;;5050146;28;20052;-76
2021/08/14 10:57:20;;;;;;;7.55;2.92;;;;;;;;;;5044337;28;20094;-75
2021/08/14 11:00:14;;;;;;;10.43;3.20;;;;;;;;;;5039043;28;20044;-75
2021/08/14 11:03:00;;;;;;;6.60;2.90;;;;;;;;;;5043523;28;20031;-75
2021/08/14 11:05:45;;;;;;;6.72;3.10;;;;;;;;;;5049318;28;20047;-74
2021/08/14 11:08:30;;;;;;;7.22;3.00;;;;;;;;;;5049604;28;20083;-74
2021/08/14 11:11:34;;;;;;;7.82;2.90;;;;;;;;;;5033910;28;20044;-74
2021/08/14 11:14:18;;;;;;;6.80;3.10;;;;;;;;;;5052100;28;20098;-74
2021/08/14 11:17:03;;;;;;;9.15;3.67;;;;;;;;;;5046399;28;20052;-75
2021/08/14 11:19:48;;;;;;;12.82;7.60;;;;;;;;;;5045571;28;20048;-74
2021/08/14 11:22:33;;;;;;;7.97;5.82;;;;;;;;;;5058921;28;20075;-75
2021/08/14 11:25:27;;;;;;;9.02;5.28;;;;;;;;;;5060490;28;20116;-75
2021/08/14 11:28:12;;;;;;;9.82;4.70;;;;;;;;;;5055342;28;20043;-75
2021/08/14 11:31:01;;;;;;;8.13;5.10;;;;;;;;;;5042335;28;20130;-75
2021/08/14 11:33:45;;;;;;;10.02;5.13;;;;;;;;;;5042981;28;20139;-75
2021/08/14 11:36:30;;;;;;;9.25;5.35;;;;;;;;;;5042174;28;20496;-75
2021/08/14 11:39:15;;;;;;;12.07;6.00;;;;;;;;;;5043132;28;20082;-75
2021/08/14 11:41:59;;;;;;;8.90;5.32;;;;;;;;;;5051871;28;20054;-75
2021/08/14 11:44:44;;;;;;;9.00;6.10;;;;;;;;;;5060010;28;20097;-75
2021/08/14 11:47:38;;;;;;;13.05;6.35;;;;;;;;;;5051132;28;20843;-74
2021/08/14 11:50:23;;;;;;;12.68;7.30;;;;;;;;;;5038394;28;20090;-75
2021/08/14 11:53:08;;;;;;;11.30;6.68;;;;;;;;;;5042842;28;20840;-75
2021/08/14 11:56:05;;;;;;;8.73;6.38;;;;;;;;;;5038636;28;20114;-75
2021/08/14 11:58:51;;;;;;;12.18;7.07;;;;;;;;;;5024239;28;20048;-75
2021/08/14 12:01:36;;;;;;;11.40;6.93;;;;;;;;;;5024125;28;20048;-75
2021/08/14 12:04:21;;;;;;;9.77;6.95;;;;;;;;;;5044581;28;20095;-75
2021/08/14 12:07:05;;;;;;;9.52;6.40;;;;;;;;;;5044656;28;20106;-75
2021/08/14 12:09:50;;;;;;;11.82;7.32;;;;;;;;;;5043910;28;20043;-75
2021/08/14 12:12:35;;;;;;;10.48;7.32;;;;;;;;;;5033496;28;20047;-75
2021/08/14 12:15:19;;;;;;;11.25;7.25;;;;;;;;;;5044951;28;20068;-75
2021/08/14 12:18:04;;;;;;;11.18;7.00;;;;;;;;;;5026800;28;20440;-74
2021/08/14 12:20:51;;;;;;;11.73;7.00;;;;;;;;;;5043921;28;20140;-74
2021/08/14 12:23:38;;;;;;;11.90;6.93;;;;;;;;;;5043402;28;20098;-75
2021/08/14 12:26:26;;;;;;;11.38;7.90;;;;;;;;;;5029578;28;20040;-75
2021/08/14 12:29:15;;;;;;;9.95;7.07;;;;;;;;;;5029459;28;20051;-74
2021/08/14 12:32:00;;;;;;;10.70;7.20;;;;;;;;;;5044477;28;20127;-75
2021/08/14 12:34:45;;;;;;;10.52;6.97;;;;;;;;;;5041629;28;20090;-75
2021/08/14 12:37:34;;;;;;;10.13;7.57;;;;;;;;;;5032724;28;20056;-74
2021/08/14 12:40:20;;;;;;;15.73;8.27;;;;;;;;;;5043450;28;20071;-75
2021/08/14 12:43:15;;;;;;;11.45;7.80;;;;;;;;;;5043049;28;20110;-74
2021/08/14 12:46:00;;;;;;;11.60;7.40;;;;;;;;;;5041208;28;20063;-74
2021/08/14 12:49:03;;;;;;;11.02;7.90;;;;;;;;;;5043369;28;20061;-74
2021/08/14 12:52:04;;;;;;;11.73;7.90;;;;;;;;;;5044224;28;20067;-74
2021/08/14 12:54:55;;;;;;;12.95;8.48;;;;;;;;;;5023302;28;20044;-75
2021/08/14 12:57:40;;;;;;;11.77;8.30;;;;;;;;;;5051943;28;20076;-73
2021/08/14 13:00:24;;;;;;;12.50;9.05;;;;;;;;;;5051280;28;20103;-73
2021/08/14 13:03:09;;;;;;;13.60;9.00;;;;;;;;;;5056048;28;20071;-73
2021/08/14 13:05:54;;;;;;;10.77;7.93;;;;;;;;;;5050352;28;20048;-73
2021/08/14 13:08:39;;;;;;;13.77;8.70;;;;;;;;;;5040963;28;20047;-73
2021/08/14 13:11:23;;;;;;;12.38;8.02;;;;;;;;;;5057807;28;20559;-73
2021/08/14 13:14:08;;;;;;;14.13;7.90;;;;;;;;;;5061709;28;20097;-73
2021/08/14 13:16:53;;;;;;;11.65;8.02;;;;;;;;;;5042081;28;20067;-74
2021/08/14 13:19:38;;;;;;;14.52;8.60;;;;;;;;;;5060472;28;20067;-74
2021/08/14 13:22:22;;;;;;;13.07;7.93;;;;;;;;;;5050933;28;20045;-73
2021/08/14 13:25:07;;;;;;;10.80;8.05;;;;;;;;;;5023977;28;20208;-73
2021/08/14 13:27:52;;;;;;;10.75;8.05;;;;;;;;;;5060157;28;20094;-73
2021/08/14 13:30:37;;;;;;;10.82;7.68;;;;;;;;;;5062211;28;20508;-73
2021/08/14 13:33:21;;;;;;;10.10;7.40;;;;;;;;;;5046815;28;20463;-73
2021/08/14 13:36:05;;;;;;;11.48;7.90;;;;;;;;;;5057673;28;20158;-73
2021/08/14 13:38:50;;;;;;;10.85;8.20;;;;;;;;;;5053645;28;20067;-73
2021/08/14 13:41:35;;;;;;;11.27;8.02;;;;;;;;;;5049302;28;20079;-73
2021/08/14 13:44:20;;;;;;;10.27;7.57;;;;;;;;;;5052058;28;20043;-73
2021/08/14 13:47:05;;;;;;;10.65;7.50;;;;;;;;;;5058512;28;20060;-73
2021/08/14 13:49:50;;;;;;;10.60;7.35;;;;;;;;;;5024533;28;20128;-73
2021/08/14 13:52:34;;;;;;;11.02;7.65;;;;;;;;;;5042117;28;20040;-73
2021/08/14 13:55:18;;;;;;;11.77;7.80;;;;;;;;;;5040361;28;20159;-73
2021/08/14 13:58:03;;;;;;;11.35;8.05;;;;;;;;;;5053890;28;20040;-73
2021/08/14 14:00:48;;;;;;;11.05;7.50;;;;;;;;;;5041274;28;20042;-74
2021/08/14 14:03:33;;;;;;;8.95;6.85;;;;;;;;;;5062198;28;20141;-73
2021/08/14 14:06:18;;;;;;;11.73;7.30;;;;;;;;;;5045207;28;20035;-73
2021/08/14 14:09:02;;;;;;;9.65;6.80;;;;;;;;;;5058238;28;20472;-73
2021/08/14 14:11:47;;;;;;;10.50;7.25;;;;;;;;;;5060690;28;20113;-73
2021/08/14 14:14:31;;;;;;;11.30;7.10;;;;;;;;;;5061973;28;20040;-73
2021/08/14 14:17:16;;;;;;;9.35;7.28;;;;;;;;;;5057487;28;20421;-73
2021/08/14 14:20:02;;;;;;;8.63;6.72;;;;;;;;;;5032670;28;20059;-72
2021/08/14 14:22:47;;;;;;;9.77;7.35;;;;;;;;;;5046907;28;20467;-72
2021/08/14 14:25:32;;;;;;;10.20;7.50;;;;;;;;;;5041759;28;20090;-73
2021/08/14 14:28:16;;;;;;;6.97;4.13;;;;;;;;;;5043559;28;20469;-73
2021/08/14 14:31:01;;;;;;;10.23;6.03;;;;;;;;;;5039502;28;20124;-72
2021/08/14 14:33:45;;;;;;;7.60;5.28;;;;;;;;;;5044814;28;20115;-72
2021/08/14 14:36:30;;;;;;;7.70;5.72;;;;;;;;;;5053871;28;20059;-72
2021/08/14 14:39:15;;;;;;;5.80;3.70;;;;;;;;;;5058138;28;20082;-72
2021/08/14 14:41:59;;;;;;;5.28;4.00;;;;;;;;;;5045228;28;20528;-72
2021/08/14 14:44:44;;;;;;;7.38;4.78;;;;;;;;;;5045108;28;20087;-72
2021/08/14 14:47:28;;;;;;;7.38;4.57;;;;;;;;;;5046876;28;20406;-72
2021/08/14 14:50:13;;;;;;;8.25;4.70;;;;;;;;;;5031308;28;20074;-72
2021/08/14 14:52:57;;;;;;;6.70;4.32;;;;;;;;;;5022157;28;20110;-72
2021/08/14 14:55:42;;;;;;;7.10;4.75;;;;;;;;;;5045636;28;20060;-72
2021/08/14 14:58:27;;;;;;;6.72;4.82;;;;;;;;;;5026577;28;20494;-72
2021/08/14 15:01:11;;;;;;;6.97;4.97;;;;;;;;;;5027813;28;20051;-72
2021/08/14 15:03:56;;;;;;;6.25;4.40;;;;;;;;;;5011612;28;20627;-72
2021/08/14 15:06:41;;;;;;;7.75;4.30;;;;;;;;;;5026633;28;20111;-71
2021/08/14 15:09:25;;;;;;;7.57;4.68;;;;;;;;;;5040376;28;20047;-72
2021/08/14 15:12:11;;;;;;;7.22;4.82;;;;;;;;;;5023558;28;20071;-72
2021/08/14 15:14:58;;;;;;;6.25;4.57;;;;;;;;;;5044132;28;20046;-72
2021/08/14 15:17:43;;;;;;;6.53;4.60;;;;;;;;;;5037941;28;20102;-72
2021/08/14 15:20:28;;;;;;;6.05;4.25;;;;;;;;;;5044650;28;20110;-72
2021/08/14 15:23:13;;;;;;;6.18;4.20;;;;;;;;;;5030154;28;20106;-72
2021/08/14 15:25:57;;;;;;;7.78;4.43;;;;;;;;;;5044178;28;20035;-71
2021/08/14 15:28:42;;;;;;;6.97;4.20;;;;;;;;;;5044511;28;20047;-72
2021/08/14 15:31:26;;;;;;;6.28;4.47;;;;;;;;;;5032346;28;20119;-72
2021/08/14 15:34:10;;;;;;;7.93;4.68;;;;;;;;;;5064611;28;20079;-72
2021/08/14 15:36:55;;;;;;;6.78;4.32;;;;;;;;;;5032185;28;20551;-71
2021/08/14 15:39:40;;;;;;;6.43;4.20;;;;;;;;;;5045425;28;20557;-72
2021/08/14 15:42:24;;;;;;;6.97;4.57;;;;;;;;;;5046077;28;20505;-72
2021/08/14 15:45:09;;;;;;;7.75;4.63;;;;;;;;;;5029365;28;20078;-72
2021/08/14 15:47:54;;;;;;;6.88;4.60;;;;;;;;;;5044114;28;20587;-72
2021/08/14 15:50:38;;;;;;;8.25;4.88;;;;;;;;;;5042194;28;20421;-72
2021/08/14 15:53:23;;;;;;;6.97;4.85;;;;;;;;;;5033905;28;20119;-72
2021/08/14 15:56:08;;;;;;;6.47;4.65;;;;;;;;;;5047395;28;20102;-72
2021/08/14 15:58:52;;;;;;;6.57;5.05;;;;;;;;;;5050219;28;20103;-72
2021/08/14 16:01:37;;;;;;;8.15;5.03;;;;;;;;;;5054207;28;20466;-72
2021/08/14 16:04:22;;;;;;;7.15;4.85;;;;;;;;;;5061107;28;20036;-72
2021/08/14 16:07:07;;;;;;;8.75;4.80;;;;;;;;;;5043247;28;20504;-72
2021/08/14 16:09:52;;;;;;;6.60;4.40;;;;;;;;;;5031215;28;20047;-72
2021/08/14 16:12:37;;;;;;;7.60;4.68;;;;;;;;;;5044638;28;20168;-72
2021/08/14 16:15:21;;;;;;;6.97;5.00;;;;;;;;;;5021614;28;20079;-72
2021/08/14 16:18:05;;;;;;;7.80;5.00;;;;;;;;;;5029078;28;20098;-72
2021/08/14 16:20:50;;;;;;;7.10;5.05;;;;;;;;;;5044857;28;20505;-72
2021/08/14 16:23:36;;;;;;;7.97;4.40;;;;;;;;;;5044616;28;20167;-72
2021/08/14 16:26:21;;;;;;;7.13;4.90;;;;;;;;;;5025697;28;20068;-73
2021/08/14 16:29:06;;;;;;;6.80;4.55;;;;;;;;;;5040791;28;20078;-72